createdAt,value
2019-01-24T00:00:01.690Z,-3.30
2019-01-24T00:03:06.463Z,-3.20
2019-01-24T00:06:11.565Z,-3.30
2019-01-24T00:09:15.957Z,-3.30
2019-01-24T00:12:19.082Z,-3.30
2019-01-24T00:15:22.422Z,-3.30
2019-01-24T00:18:25.512Z,-3.20
2019-01-24T00:21:28.641Z,-3.30
2019-01-24T00:24:31.854Z,-3.30
2019-01-24T00:27:34.954Z,-3.20
2019-01-24T00:30:38.146Z,-3.20
2019-01-24T00:33:41.342Z,-3.20
2019-01-24T00:36:44.431Z,-3.20
2019-01-24T00:39:47.534Z,-3.20
2019-01-24T00:42:50.718Z,-3.20
2019-01-24T00:45:53.918Z,-3.30
2019-01-24T00:48:57.011Z,-3.30
2019-01-24T00:52:03.178Z,-3.20
2019-01-24T00:55:09.791Z,-3.20
2019-01-24T00:58:12.946Z,-3.20
2019-01-24T01:01:16.138Z,-3.30
2019-01-24T01:04:19.338Z,-3.20
2019-01-24T01:07:22.426Z,-3.20
2019-01-24T01:10:25.621Z,-3.20
2019-01-24T01:13:28.793Z,-3.20
2019-01-24T01:16:32.016Z,-3.20
2019-01-24T01:19:35.207Z,-3.20
2019-01-24T01:22:38.554Z,-3.20
2019-01-24T01:25:41.805Z,-3.20
2019-01-24T01:28:44.935Z,-3.20
2019-01-24T01:32:07.118Z,-3.30
2019-01-24T01:35:10.330Z,-3.40
2019-01-24T01:38:15.266Z,-3.20
2019-01-24T01:41:18.366Z,-3.20
2019-01-24T01:44:21.451Z,-3.20
2019-01-24T01:47:26.163Z,-3.30
2019-01-24T01:50:29.378Z,-3.30
2019-01-24T01:53:32.626Z,-3.20
2019-01-24T01:56:35.771Z,-3.20
2019-01-24T01:59:39.030Z,-3.20
2019-01-24T02:02:43.958Z,-3.20
2019-01-24T02:05:47.066Z,-3.20
2019-01-24T02:08:50.185Z,-3.20
2019-01-24T02:11:53.434Z,-3.20
2019-01-24T02:14:56.678Z,-3.20
2019-01-24T02:18:02.447Z,-3.20
2019-01-24T02:21:05.529Z,-3.20
2019-01-24T02:24:08.662Z,-3.20
2019-01-24T02:27:11.710Z,-3.20
2019-01-24T02:30:17.679Z,-3.20
2019-01-24T02:33:20.786Z,-3.20
2019-01-24T02:36:23.998Z,-3.20
2019-01-24T02:39:27.051Z,-3.20
2019-01-24T02:42:30.186Z,-3.30
2019-01-24T02:45:33.443Z,-3.20
2019-01-24T02:48:36.686Z,-3.20
2019-01-24T02:51:39.882Z,-3.20
2019-01-24T02:54:43.203Z,-3.30
2019-01-24T02:57:46.222Z,-3.20
2019-01-24T03:00:49.466Z,-3.20
2019-01-24T03:03:52.511Z,-3.20
2019-01-24T03:06:56.962Z,-3.20
2019-01-24T03:10:00.030Z,-3.30
2019-01-24T03:13:03.337Z,-3.20
2019-01-24T03:16:06.418Z,-3.20
2019-01-24T03:19:09.550Z,-3.20
2019-01-24T03:22:12.602Z,-3.10
2019-01-24T03:25:16.346Z,-3.20
2019-01-24T03:28:19.401Z,-3.20
2019-01-24T03:31:22.646Z,-3.30
2019-01-24T03:34:25.689Z,-3.30
2019-01-24T03:37:29.034Z,-3.30
2019-01-24T03:40:32.486Z,-3.30
2019-01-24T03:43:35.631Z,-3.30
2019-01-24T03:46:38.674Z,-3.30
2019-01-24T03:49:41.935Z,-3.20
2019-01-24T03:52:45.162Z,-3.20
2019-01-24T03:55:48.294Z,-3.30
2019-01-24T03:58:51.449Z,-3.30
2019-01-24T04:01:54.803Z,-3.30
2019-01-24T04:04:57.946Z,-3.30
2019-01-24T04:08:01.297Z,-3.20
2019-01-24T04:11:04.438Z,-3.30
2019-01-24T04:14:07.616Z,-3.30
2019-01-24T04:17:10.736Z,-3.30
2019-01-24T04:20:15.179Z,-3.40
2019-01-24T04:23:18.342Z,-3.30
2019-01-24T04:26:21.642Z,-3.20
2019-01-24T04:29:24.735Z,-3.20
2019-01-24T04:32:27.829Z,-3.20
2019-01-24T04:35:30.819Z,-3.30
2019-01-24T04:38:33.914Z,-3.20
2019-01-24T04:41:37.006Z,-3.30
2019-01-24T04:44:41.302Z,-3.30
2019-01-24T04:47:44.422Z,-3.30
2019-01-24T04:50:47.517Z,-3.30
2019-01-24T04:53:50.602Z,-3.20
2019-01-24T04:56:53.804Z,-3.30
2019-01-24T04:59:56.964Z,-3.20
2019-01-24T05:03:00.088Z,-3.20
2019-01-24T05:06:03.209Z,-3.30
2019-01-24T05:09:07.398Z,-3.30
2019-01-24T05:12:10.488Z,-3.20
2019-01-24T05:15:15.227Z,-3.20
2019-01-24T05:18:18.326Z,-3.30
2019-01-24T05:21:21.413Z,-3.30
2019-01-24T05:24:24.601Z,-3.30
2019-01-24T05:27:27.701Z,-3.30
2019-01-24T05:30:30.883Z,-3.30
2019-01-24T05:33:34.054Z,-3.30
2019-01-24T05:36:37.174Z,-3.40
2019-01-24T05:39:40.406Z,-3.40
2019-01-24T05:42:43.568Z,-3.40
2019-01-24T05:45:46.957Z,-3.40
2019-01-24T05:48:50.064Z,-3.30
2019-01-24T05:51:53.310Z,-3.20
2019-01-24T05:54:56.351Z,-3.30
2019-01-24T05:57:59.699Z,-3.20
2019-01-24T06:01:04.906Z,-3.30
2019-01-24T06:04:08.438Z,-3.30
2019-01-24T06:07:11.482Z,-3.30
2019-01-24T06:10:15.033Z,-3.40
2019-01-24T06:13:18.287Z,-3.40
2019-01-24T06:16:21.416Z,-3.30
2019-01-24T06:19:24.570Z,-3.40
2019-01-24T06:22:27.698Z,-3.40
2019-01-24T06:25:30.863Z,-3.40
2019-01-24T06:28:33.991Z,-3.40
2019-01-24T06:31:37.450Z,-3.40
2019-01-24T06:34:40.812Z,-3.30
2019-01-24T06:37:43.847Z,-3.40
2019-01-24T06:40:47.082Z,-3.50
2019-01-24T06:43:50.234Z,-3.40
2019-01-24T06:46:53.474Z,-3.40
2019-01-24T06:49:58.426Z,-3.40
2019-01-24T06:53:01.902Z,-3.40
2019-01-24T06:56:04.959Z,-3.50
2019-01-24T06:59:08.206Z,-3.50
2019-01-24T07:02:11.450Z,-3.50
2019-01-24T07:05:15.175Z,-3.50
2019-01-24T07:08:18.460Z,-3.50
2019-01-24T07:11:21.586Z,-3.40
2019-01-24T07:14:24.642Z,-3.50
2019-01-24T07:17:27.878Z,-3.50
2019-01-24T07:20:31.134Z,-3.50
2019-01-24T07:23:34.480Z,-3.50
2019-01-24T07:26:37.526Z,-3.50
2019-01-24T07:29:41.176Z,-3.40
2019-01-24T07:32:44.427Z,-3.40
2019-01-24T07:35:47.722Z,-3.40
2019-01-24T07:38:50.819Z,-3.50
2019-01-24T07:41:53.914Z,-3.50
2019-01-24T07:44:57.002Z,-3.50
2019-01-24T07:48:00.202Z,-3.40
2019-01-24T07:51:03.698Z,-3.40
2019-01-24T07:54:06.898Z,-3.40
2019-01-24T07:57:10.087Z,-3.40
2019-01-24T08:00:19.696Z,-3.40
2019-01-24T08:03:22.930Z,-3.40
2019-01-24T08:06:26.026Z,-3.40
2019-01-24T08:09:29.194Z,-3.50
2019-01-24T08:12:32.415Z,-3.50
2019-01-24T08:15:35.506Z,-3.50
2019-01-24T08:18:38.702Z,-3.50
2019-01-24T08:21:41.903Z,-3.50
2019-01-24T08:24:45.194Z,-3.40
2019-01-24T08:27:49.410Z,-3.30
2019-01-24T08:30:52.506Z,-3.30
2019-01-24T08:33:55.598Z,-3.30
2019-01-24T08:36:58.796Z,-3.20
2019-01-24T08:40:01.947Z,-3.20
2019-01-24T08:43:05.362Z,-3.20
2019-01-24T08:46:08.687Z,-3.20
2019-01-24T08:49:14.545Z,-3.30
2019-01-24T08:52:17.740Z,-3.30
2019-01-24T08:55:34.865Z,-3.40
2019-01-24T08:58:38.055Z,-3.30
2019-01-24T09:01:41.150Z,-3.30
2019-01-24T09:04:44.242Z,-3.30
2019-01-24T09:07:47.790Z,-3.20
2019-01-24T09:10:50.949Z,-3.20
2019-01-24T09:13:54.146Z,-3.20
2019-01-24T09:16:57.246Z,-3.10
2019-01-24T09:20:00.577Z,-3.10
2019-01-24T09:23:05.298Z,-2.70
2019-01-24T09:26:08.701Z,-2.50
2019-01-24T09:29:11.846Z,-2.40
2019-01-24T09:32:15.195Z,-2.30
2019-01-24T09:35:18.242Z,-2.60
2019-01-24T09:38:21.369Z,-2.80
2019-01-24T09:41:24.526Z,-2.90
2019-01-24T09:44:27.704Z,-2.90
2019-01-24T09:47:30.934Z,-2.90
2019-01-24T09:50:34.162Z,-3.10
2019-01-24T09:53:37.206Z,-3.20
2019-01-24T09:56:40.450Z,-3.30
2019-01-24T09:59:43.606Z,-3.40
2019-01-24T10:02:46.734Z,-3.30
2019-01-24T10:05:49.986Z,-2.90
2019-01-24T10:08:53.354Z,-2.30
2019-01-24T10:11:56.483Z,-1.80
2019-01-24T10:14:59.934Z,-2.10
2019-01-24T10:18:03.180Z,-2.20
2019-01-24T10:21:06.731Z,-2.70
2019-01-24T10:24:09.874Z,-3.00
2019-01-24T10:27:13.114Z,-3.10
2019-01-24T10:30:17.912Z,-3.10
2019-01-24T10:33:21.443Z,-3.30
2019-01-24T10:36:24.486Z,-3.40
2019-01-24T10:39:27.620Z,-3.30
2019-01-24T10:42:30.671Z,-3.20
2019-01-24T10:45:36.263Z,-3.30
2019-01-24T10:48:39.319Z,-3.50
2019-01-24T10:51:42.474Z,-3.80
2019-01-24T10:54:45.602Z,-4.00
2019-01-24T10:57:49.568Z,-4.00
2019-01-24T11:00:53.730Z,-4.00
2019-01-24T11:03:57.362Z,-4.20
2019-01-24T11:07:00.634Z,-4.10
2019-01-24T11:10:04.964Z,-4.20
2019-01-24T11:13:08.149Z,-4.20
2019-01-24T11:16:11.346Z,-4.10
2019-01-24T11:19:14.514Z,-4.10
2019-01-24T11:22:17.739Z,-4.10
2019-01-24T11:25:21.647Z,-4.10
2019-01-24T11:28:27.484Z,-3.90
2019-01-24T11:31:30.667Z,-3.90
2019-01-24T11:34:34.002Z,-3.80
2019-01-24T11:37:37.097Z,-4.00
2019-01-24T11:40:41.373Z,-4.00
2019-01-24T11:43:44.406Z,-4.00
2019-01-24T11:46:47.602Z,-4.00
2019-01-24T11:49:50.694Z,-4.10
2019-01-24T11:52:53.887Z,-4.10
2019-01-24T11:55:56.983Z,-4.00
2019-01-24T11:59:00.182Z,-4.00
2019-01-24T12:02:03.474Z,-4.00
2019-01-24T12:05:08.107Z,-4.00
2019-01-24T12:08:11.294Z,-4.00
2019-01-24T12:11:14.390Z,-3.90
2019-01-24T12:14:17.486Z,-3.90
2019-01-24T12:17:20.678Z,-3.90
2019-01-24T12:20:24.183Z,-3.90
2019-01-24T12:23:27.374Z,-4.00
2019-01-24T12:26:30.570Z,-3.90
2019-01-24T12:29:33.830Z,-3.90
2019-01-24T12:32:36.958Z,-3.90
2019-01-24T12:35:40.190Z,-4.00
2019-01-24T12:38:43.352Z,-4.00
2019-01-24T12:41:46.478Z,-3.90
2019-01-24T12:44:49.738Z,-4.00
2019-01-24T12:47:53.183Z,-3.90
2019-01-24T12:50:56.330Z,-4.00
2019-01-24T12:54:00.409Z,-4.00
2019-01-24T12:57:03.646Z,-3.90
2019-01-24T13:00:11.884Z,-3.90
2019-01-24T13:03:15.892Z,-4.00
2019-01-24T13:06:20.275Z,-4.00
2019-01-24T13:09:23.594Z,-4.00
2019-01-24T13:12:26.863Z,-4.00
2019-01-24T13:15:31.286Z,-4.00
2019-01-24T13:18:34.550Z,-4.00
2019-01-24T13:21:37.727Z,-4.10
2019-01-24T13:24:40.846Z,-4.10
2019-01-24T13:27:43.898Z,-4.10
2019-01-24T13:30:47.128Z,-4.10
2019-01-24T13:33:50.286Z,-4.20
2019-01-24T13:36:53.431Z,-4.20
2019-01-24T13:39:56.567Z,-4.10
2019-01-24T13:43:00.733Z,-4.10
2019-01-24T13:46:03.882Z,-4.20
2019-01-24T13:49:07.419Z,-4.10
2019-01-24T13:52:10.582Z,-4.10
2019-01-24T13:55:13.850Z,-4.10
2019-01-24T13:58:18.710Z,-4.00
2019-01-24T14:01:21.943Z,-4.00
2019-01-24T14:04:35.009Z,-4.00
2019-01-24T14:07:38.177Z,-4.10
2019-01-24T14:10:41.224Z,-4.00
2019-01-24T14:13:44.351Z,-4.00
2019-01-24T14:16:47.406Z,-4.00
2019-01-24T14:19:50.718Z,-4.00
2019-01-24T14:22:54.074Z,-4.00
2019-01-24T14:25:57.338Z,-4.00
2019-01-24T14:29:19.529Z,-4.00
2019-01-24T14:32:24.963Z,-3.90
2019-01-24T14:35:28.182Z,-4.00
2019-01-24T14:38:31.418Z,-4.10
2019-01-24T14:41:34.471Z,-4.10
2019-01-24T14:44:38.527Z,-4.00
2019-01-24T14:47:41.578Z,-4.00
2019-01-24T14:50:44.678Z,-4.00
2019-01-24T14:53:47.761Z,-4.00
2019-01-24T14:56:50.997Z,-3.90
2019-01-24T14:59:54.046Z,-4.00
2019-01-24T15:02:57.598Z,-4.00
2019-01-24T15:06:00.747Z,-4.10
2019-01-24T15:09:07.907Z,-4.00
2019-01-24T15:12:13.054Z,-4.00
2019-01-24T15:15:16.523Z,-3.90
2019-01-24T15:18:38.706Z,-3.90
2019-01-24T15:21:41.847Z,-4.10
2019-01-24T15:24:44.902Z,-4.00
2019-01-24T15:27:48.170Z,-4.00
2019-01-24T15:30:51.306Z,-4.10
2019-01-24T15:33:54.554Z,-4.10
2019-01-24T15:36:57.690Z,-4.10
2019-01-24T15:40:00.823Z,-4.20
2019-01-24T15:43:04.991Z,-4.20
2019-01-24T15:46:08.344Z,-4.20
2019-01-24T15:49:11.491Z,-4.20
2019-01-24T15:52:14.618Z,-4.20
2019-01-24T15:55:18.085Z,-4.20
2019-01-24T15:58:21.178Z,-4.20
2019-01-24T16:01:24.474Z,-4.20
2019-01-24T16:04:27.570Z,-4.10
2019-01-24T16:07:30.658Z,-4.10
2019-01-24T16:10:33.901Z,-4.10
2019-01-24T16:13:37.154Z,-4.20
2019-01-24T16:16:40.454Z,-4.20
2019-01-24T16:19:43.642Z,-4.20
2019-01-24T16:22:46.742Z,-4.20
2019-01-24T16:25:49.733Z,-4.00
2019-01-24T16:28:52.983Z,-4.10
2019-01-24T16:31:56.231Z,-4.20
2019-01-24T16:34:59.425Z,-4.10
2019-01-24T16:38:09.009Z,-4.20
2019-01-24T16:41:07.759Z,-4.20
2019-01-24T16:44:10.949Z,-4.10
2019-01-24T16:47:14.148Z,-4.10
2019-01-24T16:50:17.950Z,-4.10
2019-01-24T16:53:21.450Z,-4.20
2019-01-24T16:56:24.546Z,-4.20
2019-01-24T16:59:27.558Z,-4.20
2019-01-24T17:02:30.631Z,-4.20
2019-01-24T17:05:33.975Z,-4.20
2019-01-24T17:08:37.129Z,-4.20
2019-01-24T17:11:40.932Z,-4.30
2019-01-24T17:14:45.597Z,-4.20
2019-01-24T17:17:50.124Z,-4.20
2019-01-24T17:29:50.486Z,-4.20
2019-01-24T17:32:54.131Z,-4.20
2019-01-24T17:35:57.278Z,-4.20
2019-01-24T17:39:00.639Z,-4.30
2019-01-24T17:42:04.035Z,-4.20
2019-01-24T17:45:08.650Z,-4.10
2019-01-24T17:48:11.858Z,-4.00
2019-01-24T17:51:15.674Z,-4.10
2019-01-24T17:54:18.862Z,-4.10
2019-01-24T17:57:23.022Z,-4.10
2019-01-24T18:00:28.598Z,-4.10
2019-01-24T18:03:31.842Z,-4.20
2019-01-24T18:06:35.022Z,-4.20
2019-01-24T18:09:38.266Z,-4.30
2019-01-24T18:12:41.414Z,-4.30
2019-01-24T18:15:44.758Z,-4.20
2019-01-24T18:18:47.798Z,-4.10
2019-01-24T18:21:51.030Z,-4.10
2019-01-24T18:24:54.190Z,-4.10
2019-01-24T18:27:57.431Z,-4.10
2019-01-24T18:31:00.582Z,-4.10
2019-01-24T18:34:05.014Z,-4.10
2019-01-24T18:37:08.199Z,-4.10
2019-01-24T18:40:13.035Z,-4.00
2019-01-24T18:43:21.622Z,-4.00
2019-01-24T18:46:24.994Z,-4.10
2019-01-24T18:49:28.047Z,-4.10
2019-01-24T18:52:31.451Z,-4.10
2019-01-24T18:55:37.728Z,-4.00
2019-01-24T18:58:40.946Z,-4.00
2019-01-24T19:01:44.102Z,-4.00
2019-01-24T19:04:47.333Z,-4.00
2019-01-24T19:07:50.494Z,-4.00
2019-01-24T19:10:53.690Z,-4.10
2019-01-24T19:13:58.189Z,-4.10
2019-01-24T19:17:01.314Z,-4.10
2019-01-24T19:20:05.114Z,-4.10
2019-01-24T19:23:08.994Z,-4.10
2019-01-24T19:26:12.330Z,-4.00
2019-01-24T19:29:15.522Z,-4.00
2019-01-24T19:32:18.719Z,-4.00
2019-01-24T19:35:21.919Z,-4.00
2019-01-24T19:38:25.124Z,-3.90
2019-01-24T19:41:28.344Z,-3.90
2019-01-24T19:44:31.494Z,-3.90
2019-01-24T19:47:34.690Z,-3.90
2019-01-24T19:50:37.887Z,-3.90
2019-01-24T19:53:41.037Z,-4.00
2019-01-24T19:56:44.283Z,-3.90
2019-01-24T19:59:47.374Z,-3.90
2019-01-24T20:02:50.666Z,-3.90
2019-01-24T20:05:53.762Z,-3.80
2019-01-24T20:09:00.413Z,-3.90
2019-01-24T20:12:02.118Z,-3.90
2019-01-24T20:15:07.338Z,-4.00
2019-01-24T20:18:10.763Z,-3.90
2019-01-24T20:21:13.937Z,-3.90
2019-01-24T20:24:17.164Z,-3.90
2019-01-24T20:27:20.322Z,-3.80
2019-01-24T20:30:25.354Z,-3.80
2019-01-24T20:33:28.558Z,-3.90
2019-01-24T20:36:32.010Z,-3.90
2019-01-24T20:39:35.154Z,-3.90
2019-01-24T20:42:40.222Z,-3.90
2019-01-24T20:45:43.490Z,-3.90
2019-01-24T20:48:46.730Z,-3.80
2019-01-24T20:51:49.878Z,-3.90
2019-01-24T20:54:53.127Z,-3.80
2019-01-24T20:57:57.294Z,-3.80
2019-01-24T21:01:00.642Z,-3.90
2019-01-24T21:04:03.890Z,-3.90
2019-01-24T21:07:09.177Z,-3.90
2019-01-24T21:10:14.958Z,-4.00
2019-01-24T21:13:20.191Z,-3.90
2019-01-24T21:16:23.839Z,-4.00
2019-01-24T21:19:26.984Z,-4.00
2019-01-24T21:22:30.122Z,-3.90
2019-01-24T21:25:33.359Z,-3.90
2019-01-24T21:28:36.514Z,-4.00
2019-01-24T21:31:39.846Z,-3.90
2019-01-24T21:34:42.907Z,-4.00
2019-01-24T21:37:46.967Z,-3.80
2019-01-24T21:40:50.019Z,-3.90
2019-01-24T21:43:53.346Z,-3.90
2019-01-24T21:46:56.502Z,-4.00
2019-01-24T21:49:59.847Z,-3.90
2019-01-24T21:53:03.461Z,-4.00
2019-01-24T21:56:06.854Z,-3.90
2019-01-24T21:59:10.322Z,-3.90
2019-01-24T22:02:13.854Z,-3.80
2019-01-24T22:05:17.213Z,-3.90
2019-01-24T22:08:20.345Z,-3.90
2019-01-24T22:11:23.401Z,-3.90
2019-01-24T22:14:26.654Z,-3.80
2019-01-24T22:17:29.891Z,-3.80
2019-01-24T22:20:33.134Z,-3.80
2019-01-24T22:23:36.384Z,-3.80
2019-01-24T22:26:39.530Z,-3.80
2019-01-24T22:29:42.673Z,-3.80
2019-01-24T22:32:46.006Z,-3.80
2019-01-24T22:35:49.142Z,-3.90
2019-01-24T22:38:53.326Z,-4.00
2019-01-24T22:41:56.474Z,-4.00
2019-01-24T22:44:59.674Z,-4.00
2019-01-24T22:48:03.678Z,-3.90
2019-01-24T22:51:06.882Z,-4.00
2019-01-24T22:54:10.074Z,-3.90
2019-01-24T22:57:13.170Z,-3.80
2019-01-24T23:00:45.435Z,-3.80
2019-01-24T23:03:53.863Z,-3.80
2019-01-24T23:06:56.955Z,-3.90
2019-01-24T23:10:00.270Z,-4.00
2019-01-24T23:13:03.447Z,-4.00
2019-01-24T23:16:06.745Z,-4.00
2019-01-24T23:19:09.934Z,-4.00
2019-01-24T23:22:13.137Z,-4.00
2019-01-24T23:25:16.325Z,-3.90
2019-01-24T23:28:19.426Z,-3.90
2019-01-24T23:31:22.719Z,-3.90
2019-01-24T23:34:25.917Z,-3.90
2019-01-24T23:37:29.011Z,-3.80
2019-01-24T23:40:32.520Z,-3.90
2019-01-24T23:43:35.618Z,-3.90
2019-01-24T23:46:38.797Z,-4.00
2019-01-24T23:49:41.890Z,-4.00
2019-01-24T23:52:45.087Z,-4.00
2019-01-24T23:55:48.178Z,-4.10
2019-01-24T23:58:51.274Z,-4.00
